sensor_id;sensor_type;location;lat;lon;timestamp;temperature;humidity
47845;DHT22;33605;48.822;8.796;2023-04-06T00:01:38;5.90;30.40
47845;DHT22;33605;48.822;8.796;2023-04-06T00:04:04;5.90;30.50
47845;DHT22;33605;48.822;8.796;2023-04-06T00:06:30;5.80;30.50
47845;DHT22;33605;48.822;8.796;2023-04-06T00:08:57;5.80;30.60
47845;DHT22;33605;48.822;8.796;2023-04-06T00:11:23;5.90;30.90
47845;DHT22;33605;48.822;8.796;2023-04-06T00:13:49;5.80;30.70
47845;DHT22;33605;48.822;8.796;2023-04-06T00:16:15;5.90;30.90
47845;DHT22;33605;48.822;8.796;2023-04-06T00:18:41;5.90;31.10
47845;DHT22;33605;48.822;8.796;2023-04-06T00:21:07;5.90;31.10
47845;DHT22;33605;48.822;8.796;2023-04-06T00:23:32;5.90;31.20
47845;DHT22;33605;48.822;8.796;2023-04-06T00:25:58;5.80;31.30
47845;DHT22;33605;48.822;8.796;2023-04-06T00:28:23;5.80;31.40
47845;DHT22;33605;48.822;8.796;2023-04-06T00:30:55;5.80;31.40
47845;DHT22;33605;48.822;8.796;2023-04-06T00:33:21;5.80;31.40
47845;DHT22;33605;48.822;8.796;2023-04-06T00:35:48;5.70;31.30
47845;DHT22;33605;48.822;8.796;2023-04-06T00:38:14;5.70;31.30
47845;DHT22;33605;48.822;8.796;2023-04-06T00:40:40;5.70;31.30
47845;DHT22;33605;48.822;8.796;2023-04-06T00:43:06;5.70;31.40
47845;DHT22;33605;48.822;8.796;2023-04-06T00:45:33;5.60;31.40
47845;DHT22;33605;48.822;8.796;2023-04-06T00:47:59;5.70;31.60
47845;DHT22;33605;48.822;8.796;2023-04-06T00:50:25;5.60;31.40
47845;DHT22;33605;48.822;8.796;2023-04-06T00:52:50;5.60;31.60
47845;DHT22;33605;48.822;8.796;2023-04-06T00:55:17;5.60;31.70
47845;DHT22;33605;48.822;8.796;2023-04-06T00:57:43;5.60;31.80
47845;DHT22;33605;48.822;8.796;2023-04-06T01:00:09;5.60;31.80
47845;DHT22;33605;48.822;8.796;2023-04-06T01:02:36;5.60;31.90
47845;DHT22;33605;48.822;8.796;2023-04-06T01:05:01;5.50;31.90
47845;DHT22;33605;48.822;8.796;2023-04-06T01:07:27;5.60;32.00
47845;DHT22;33605;48.822;8.796;2023-04-06T01:09:54;5.50;31.90
47845;DHT22;33605;48.822;8.796;2023-04-06T01:12:20;5.50;31.80
47845;DHT22;33605;48.822;8.796;2023-04-06T01:14:46;5.50;31.80
47845;DHT22;33605;48.822;8.796;2023-04-06T01:17:11;5.50;31.90
47845;DHT22;33605;48.822;8.796;2023-04-06T01:19:37;5.40;31.80
47845;DHT22;33605;48.822;8.796;2023-04-06T01:22:03;5.40;31.80
47845;DHT22;33605;48.822;8.796;2023-04-06T01:24:29;5.40;31.80
47845;DHT22;33605;48.822;8.796;2023-04-06T01:26:55;5.40;31.80
47845;DHT22;33605;48.822;8.796;2023-04-06T01:29:22;5.40;31.70
47845;DHT22;33605;48.822;8.796;2023-04-06T01:31:47;5.40;31.80
47845;DHT22;33605;48.822;8.796;2023-04-06T01:34:13;5.40;31.70
47845;DHT22;33605;48.822;8.796;2023-04-06T01:36:39;5.40;31.80
47845;DHT22;33605;48.822;8.796;2023-04-06T01:39:04;5.40;31.80
47845;DHT22;33605;48.822;8.796;2023-04-06T01:41:30;5.30;31.60
47845;DHT22;33605;48.822;8.796;2023-04-06T01:43:56;5.30;31.70
47845;DHT22;33605;48.822;8.796;2023-04-06T01:46:22;5.30;31.60
47845;DHT22;33605;48.822;8.796;2023-04-06T01:48:47;5.30;31.70
47845;DHT22;33605;48.822;8.796;2023-04-06T01:51:13;5.30;32.00
47845;DHT22;33605;48.822;8.796;2023-04-06T01:53:39;5.30;32.00
47845;DHT22;33605;48.822;8.796;2023-04-06T01:56:05;5.30;31.90
47845;DHT22;33605;48.822;8.796;2023-04-06T01:58:30;5.20;32.00
47845;DHT22;33605;48.822;8.796;2023-04-06T02:00:56;5.20;32.00
47845;DHT22;33605;48.822;8.796;2023-04-06T02:03:22;5.20;32.00
47845;DHT22;33605;48.822;8.796;2023-04-06T02:05:47;5.20;32.10
47845;DHT22;33605;48.822;8.796;2023-04-06T02:08:13;5.20;32.10
47845;DHT22;33605;48.822;8.796;2023-04-06T02:10:38;5.10;31.90
47845;DHT22;33605;48.822;8.796;2023-04-06T02:13:04;5.10;32.00
47845;DHT22;33605;48.822;8.796;2023-04-06T02:15:30;5.10;32.20
47845;DHT22;33605;48.822;8.796;2023-04-06T02:17:57;5.10;32.20
47845;DHT22;33605;48.822;8.796;2023-04-06T02:20:23;5.10;32.10
47845;DHT22;33605;48.822;8.796;2023-04-06T02:22:48;5.10;32.20
47845;DHT22;33605;48.822;8.796;2023-04-06T02:25:14;5.10;32.20
47845;DHT22;33605;48.822;8.796;2023-04-06T02:27:39;5.00;32.10
47845;DHT22;33605;48.822;8.796;2023-04-06T02:30:06;5.00;32.10
47845;DHT22;33605;48.822;8.796;2023-04-06T02:32:32;5.00;32.20
47845;DHT22;33605;48.822;8.796;2023-04-06T02:34:57;5.00;32.10
47845;DHT22;33605;48.822;8.796;2023-04-06T02:37:23;5.00;32.20
47845;DHT22;33605;48.822;8.796;2023-04-06T02:39:49;5.00;32.30
47845;DHT22;33605;48.822;8.796;2023-04-06T02:42:15;4.90;32.10
47845;DHT22;33605;48.822;8.796;2023-04-06T02:44:42;4.90;32.00
47845;DHT22;33605;48.822;8.796;2023-04-06T02:47:07;4.90;31.80
47845;DHT22;33605;48.822;8.796;2023-04-06T02:49:33;4.90;31.50
47845;DHT22;33605;48.822;8.796;2023-04-06T02:51:59;4.90;31.60
47845;DHT22;33605;48.822;8.796;2023-04-06T02:54:25;4.80;31.90
47845;DHT22;33605;48.822;8.796;2023-04-06T02:56:51;4.80;32.10
47845;DHT22;33605;48.822;8.796;2023-04-06T02:59:16;4.80;32.30
47845;DHT22;33605;48.822;8.796;2023-04-06T03:01:42;4.70;32.20
47845;DHT22;33605;48.822;8.796;2023-04-06T03:04:08;4.70;32.30
47845;DHT22;33605;48.822;8.796;2023-04-06T03:06:33;4.80;32.50
47845;DHT22;33605;48.822;8.796;2023-04-06T03:08:59;4.70;32.30
47845;DHT22;33605;48.822;8.796;2023-04-06T03:11:25;4.70;32.40
47845;DHT22;33605;48.822;8.796;2023-04-06T03:13:52;4.70;32.30
47845;DHT22;33605;48.822;8.796;2023-04-06T03:16:17;4.70;32.30
47845;DHT22;33605;48.822;8.796;2023-04-06T03:18:43;4.70;32.30
47845;DHT22;33605;48.822;8.796;2023-04-06T03:21:15;4.70;32.30
47845;DHT22;33605;48.822;8.796;2023-04-06T03:23:41;4.70;32.40
47845;DHT22;33605;48.822;8.796;2023-04-06T03:26:07;4.70;32.50
47845;DHT22;33605;48.822;8.796;2023-04-06T03:28:33;4.60;32.50
47845;DHT22;33605;48.822;8.796;2023-04-06T03:30:59;4.60;32.50
47845;DHT22;33605;48.822;8.796;2023-04-06T03:33:25;4.60;32.70
47845;DHT22;33605;48.822;8.796;2023-04-06T03:35:53;4.60;32.70
47845;DHT22;33605;48.822;8.796;2023-04-06T03:38:18;4.60;32.60
47845;DHT22;33605;48.822;8.796;2023-04-06T03:40:44;4.50;32.50
47845;DHT22;33605;48.822;8.796;2023-04-06T03:43:10;4.50;32.40
47845;DHT22;33605;48.822;8.796;2023-04-06T03:45:36;4.50;32.50
47845;DHT22;33605;48.822;8.796;2023-04-06T03:48:02;4.50;32.70
47845;DHT22;33605;48.822;8.796;2023-04-06T03:50:27;4.50;32.80
47845;DHT22;33605;48.822;8.796;2023-04-06T03:52:53;4.50;32.90
47845;DHT22;33605;48.822;8.796;2023-04-06T03:55:19;4.40;32.70
47845;DHT22;33605;48.822;8.796;2023-04-06T03:57:44;4.40;32.80
47845;DHT22;33605;48.822;8.796;2023-04-06T04:00:11;4.40;32.90
47845;DHT22;33605;48.822;8.796;2023-04-06T04:02:36;4.30;32.80
47845;DHT22;33605;48.822;8.796;2023-04-06T04:05:02;4.40;32.80
47845;DHT22;33605;48.822;8.796;2023-04-06T04:07:28;4.40;32.80
47845;DHT22;33605;48.822;8.796;2023-04-06T04:09:54;4.30;32.60
47845;DHT22;33605;48.822;8.796;2023-04-06T04:12:20;4.30;32.80
47845;DHT22;33605;48.822;8.796;2023-04-06T04:14:45;4.30;33.00
47845;DHT22;33605;48.822;8.796;2023-04-06T04:17:11;4.30;33.00
47845;DHT22;33605;48.822;8.796;2023-04-06T04:19:37;4.30;33.00
47845;DHT22;33605;48.822;8.796;2023-04-06T04:22:03;4.20;33.50
47845;DHT22;33605;48.822;8.796;2023-04-06T04:24:32;4.20;32.90
47845;DHT22;33605;48.822;8.796;2023-04-06T04:26:59;4.20;33.00
47845;DHT22;33605;48.822;8.796;2023-04-06T04:29:26;4.20;33.00
47845;DHT22;33605;48.822;8.796;2023-04-06T04:31:51;4.10;33.00
47845;DHT22;33605;48.822;8.796;2023-04-06T04:34:18;4.10;33.20
47845;DHT22;33605;48.822;8.796;2023-04-06T04:36:46;4.10;33.20
47845;DHT22;33605;48.822;8.796;2023-04-06T04:39:11;4.00;33.20
47845;DHT22;33605;48.822;8.796;2023-04-06T04:41:37;4.00;33.10
47845;DHT22;33605;48.822;8.796;2023-04-06T04:44:03;4.00;33.10
47845;DHT22;33605;48.822;8.796;2023-04-06T04:46:28;4.00;33.00
47845;DHT22;33605;48.822;8.796;2023-04-06T04:48:54;4.00;33.00
47845;DHT22;33605;48.822;8.796;2023-04-06T04:51:20;4.00;33.20
47845;DHT22;33605;48.822;8.796;2023-04-06T04:53:46;4.00;33.20
47845;DHT22;33605;48.822;8.796;2023-04-06T04:56:11;4.00;33.30
47845;DHT22;33605;48.822;8.796;2023-04-06T04:58:37;4.00;33.30
47845;DHT22;33605;48.822;8.796;2023-04-06T05:01:03;4.00;33.30
47845;DHT22;33605;48.822;8.796;2023-04-06T05:03:29;4.00;33.20
47845;DHT22;33605;48.822;8.796;2023-04-06T05:05:54;4.00;33.20
47845;DHT22;33605;48.822;8.796;2023-04-06T05:08:20;4.00;33.20
47845;DHT22;33605;48.822;8.796;2023-04-06T05:10:46;4.00;33.30
47845;DHT22;33605;48.822;8.796;2023-04-06T05:13:16;4.00;33.20
47845;DHT22;33605;48.822;8.796;2023-04-06T05:15:42;4.00;33.30
47845;DHT22;33605;48.822;8.796;2023-04-06T05:18:08;4.10;33.40
47845;DHT22;33605;48.822;8.796;2023-04-06T05:20:34;4.10;33.40
47845;DHT22;33605;48.822;8.796;2023-04-06T05:23:01;4.10;33.50
47845;DHT22;33605;48.822;8.796;2023-04-06T05:25:26;4.10;33.50
47845;DHT22;33605;48.822;8.796;2023-04-06T05:27:52;4.10;33.60
47845;DHT22;33605;48.822;8.796;2023-04-06T05:30:18;4.10;34.20
47845;DHT22;33605;48.822;8.796;2023-04-06T05:32:44;4.10;33.60
47845;DHT22;33605;48.822;8.796;2023-04-06T05:35:10;4.20;33.80
47845;DHT22;33605;48.822;8.796;2023-04-06T05:37:37;4.20;33.70
47845;DHT22;33605;48.822;8.796;2023-04-06T05:40:03;4.20;33.70
47845;DHT22;33605;48.822;8.796;2023-04-06T05:42:40;4.20;34.30
47845;DHT22;33605;48.822;8.796;2023-04-06T05:45:08;4.20;33.70
47845;DHT22;33605;48.822;8.796;2023-04-06T05:47:34;4.20;33.60
47845;DHT22;33605;48.822;8.796;2023-04-06T05:50:00;4.20;33.60
47845;DHT22;33605;48.822;8.796;2023-04-06T05:52:26;4.20;33.80
47845;DHT22;33605;48.822;8.796;2023-04-06T05:54:52;4.30;33.90
47845;DHT22;33605;48.822;8.796;2023-04-06T05:57:18;4.30;33.90
47845;DHT22;33605;48.822;8.796;2023-04-06T05:59:43;4.30;33.90
47845;DHT22;33605;48.822;8.796;2023-04-06T06:02:09;4.30;33.90
47845;DHT22;33605;48.822;8.796;2023-04-06T06:04:35;4.30;34.60
47845;DHT22;33605;48.822;8.796;2023-04-06T06:07:00;4.30;34.10
47845;DHT22;33605;48.822;8.796;2023-04-06T06:09:26;4.30;34.20
47845;DHT22;33605;48.822;8.796;2023-04-06T06:11:52;4.30;34.10
47845;DHT22;33605;48.822;8.796;2023-04-06T06:14:18;4.30;34.00
47845;DHT22;33605;48.822;8.796;2023-04-06T06:16:43;4.30;34.00
47845;DHT22;33605;48.822;8.796;2023-04-06T06:19:09;4.40;34.10
47845;DHT22;33605;48.822;8.796;2023-04-06T06:21:34;4.40;34.20
47845;DHT22;33605;48.822;8.796;2023-04-06T06:24:00;4.40;34.30
47845;DHT22;33605;48.822;8.796;2023-04-06T06:26:26;4.40;34.30
47845;DHT22;33605;48.822;8.796;2023-04-06T06:28:52;4.40;34.30
47845;DHT22;33605;48.822;8.796;2023-04-06T06:31:17;4.40;34.20
47845;DHT22;33605;48.822;8.796;2023-04-06T06:33:46;4.40;34.30
47845;DHT22;33605;48.822;8.796;2023-04-06T06:36:13;4.40;34.30
47845;DHT22;33605;48.822;8.796;2023-04-06T06:38:39;4.50;34.50
47845;DHT22;33605;48.822;8.796;2023-04-06T06:41:05;4.50;34.50
47845;DHT22;33605;48.822;8.796;2023-04-06T06:43:30;4.50;34.50
47845;DHT22;33605;48.822;8.796;2023-04-06T06:45:56;4.50;34.60
47845;DHT22;33605;48.822;8.796;2023-04-06T06:48:22;4.60;34.70
47845;DHT22;33605;48.822;8.796;2023-04-06T06:50:48;4.60;34.80
47845;DHT22;33605;48.822;8.796;2023-04-06T06:53:14;4.70;35.00
47845;DHT22;33605;48.822;8.796;2023-04-06T06:55:40;4.80;35.10
47845;DHT22;33605;48.822;8.796;2023-04-06T06:58:06;4.80;35.10
47845;DHT22;33605;48.822;8.796;2023-04-06T07:00:32;4.90;35.90
47845;DHT22;33605;48.822;8.796;2023-04-06T07:02:58;4.90;35.20
47845;DHT22;33605;48.822;8.796;2023-04-06T07:05:23;5.00;35.40
47845;DHT22;33605;48.822;8.796;2023-04-06T07:07:49;5.10;35.40
47845;DHT22;33605;48.822;8.796;2023-04-06T07:10:15;5.10;35.30
47845;DHT22;33605;48.822;8.796;2023-04-06T07:12:40;5.20;35.90
47845;DHT22;33605;48.822;8.796;2023-04-06T07:15:07;5.30;35.60
47845;DHT22;33605;48.822;8.796;2023-04-06T07:17:32;5.40;35.30
47845;DHT22;33605;48.822;8.796;2023-04-06T07:19:58;5.50;35.20
47845;DHT22;33605;48.822;8.796;2023-04-06T07:22:23;5.60;35.20
47845;DHT22;33605;48.822;8.796;2023-04-06T07:24:49;5.70;35.20
47845;DHT22;33605;48.822;8.796;2023-04-06T07:27:15;5.80;35.30
47845;DHT22;33605;48.822;8.796;2023-04-06T07:29:42;5.90;35.30
47845;DHT22;33605;48.822;8.796;2023-04-06T07:32:07;6.00;35.40
47845;DHT22;33605;48.822;8.796;2023-04-06T07:34:33;6.20;35.50
47845;DHT22;33605;48.822;8.796;2023-04-06T07:36:59;6.30;36.20
47845;DHT22;33605;48.822;8.796;2023-04-06T07:39:26;6.40;35.60
47845;DHT22;33605;48.822;8.796;2023-04-06T07:41:52;6.60;35.70
47845;DHT22;33605;48.822;8.796;2023-04-06T07:44:18;6.70;35.70
47845;DHT22;33605;48.822;8.796;2023-04-06T07:46:43;6.80;35.60
47845;DHT22;33605;48.822;8.796;2023-04-06T07:49:09;7.00;35.80
